sensor_id;sensor_type;location;lat;lon;timestamp;P1;durP1;ratioP1;P2;durP2;ratioP2
69126;SDS011;56688;50.234;19.292;2022-12-24T00:00:14;61.50;;;31.40;;
69126;SDS011;56688;50.234;19.292;2022-12-24T00:02:41;65.50;;;33.80;;
69126;SDS011;56688;50.234;19.292;2022-12-24T00:05:08;60.60;;;31.10;;
69126;SDS011;56688;50.234;19.292;2022-12-24T00:07:36;56.10;;;29.00;;
69126;SDS011;56688;50.234;19.292;2022-12-24T00:10:03;50.00;;;28.80;;
69126;SDS011;56688;50.234;19.292;2022-12-24T00:12:31;51.10;;;28.70;;
69126;SDS011;56688;50.234;19.292;2022-12-24T00:14:58;50.40;;;28.20;;
69126;SDS011;56688;50.234;19.292;2022-12-24T00:17:24;50.70;;;27.50;;
69126;SDS011;56688;50.234;19.292;2022-12-24T00:19:51;51.80;;;28.00;;
69126;SDS011;56688;50.234;19.292;2022-12-24T00:22:18;50.70;;;27.90;;
69126;SDS011;56688;50.234;19.292;2022-12-24T00:24:45;47.80;;;25.60;;
69126;SDS011;56688;50.234;19.292;2022-12-24T00:27:12;48.00;;;27.40;;
69126;SDS011;56688;50.234;19.292;2022-12-24T00:29:38;44.10;;;24.50;;
69126;SDS011;56688;50.234;19.292;2022-12-24T00:32:05;47.00;;;26.20;;
69126;SDS011;56688;50.234;19.292;2022-12-24T00:34:35;39.10;;;23.20;;
69126;SDS011;56688;50.234;19.292;2022-12-24T00:37:03;46.40;;;26.00;;
69126;SDS011;56688;50.234;19.292;2022-12-24T00:39:31;43.30;;;25.10;;
69126;SDS011;56688;50.234;19.292;2022-12-24T00:41:58;37.60;;;22.50;;
69126;SDS011;56688;50.234;19.292;2022-12-24T00:44:25;77.70;;;38.10;;
69126;SDS011;56688;50.234;19.292;2022-12-24T00:46:52;51.10;;;28.70;;
69126;SDS011;56688;50.234;19.292;2022-12-24T00:49:18;46.10;;;24.00;;
69126;SDS011;56688;50.234;19.292;2022-12-24T00:51:45;42.20;;;22.80;;
69126;SDS011;56688;50.234;19.292;2022-12-24T00:54:12;39.90;;;22.70;;
69126;SDS011;56688;50.234;19.292;2022-12-24T00:56:39;37.60;;;21.20;;
69126;SDS011;56688;50.234;19.292;2022-12-24T00:59:06;36.20;;;23.20;;
69126;SDS011;56688;50.234;19.292;2022-12-24T01:01:33;36.60;;;21.30;;
69126;SDS011;56688;50.234;19.292;2022-12-24T01:04:02;35.50;;;19.90;;
69126;SDS011;56688;50.234;19.292;2022-12-24T01:06:44;39.00;;;22.00;;
69126;SDS011;56688;50.234;19.292;2022-12-24T01:09:11;37.80;;;22.70;;
69126;SDS011;56688;50.234;19.292;2022-12-24T01:11:38;33.80;;;20.50;;
69126;SDS011;56688;50.234;19.292;2022-12-24T01:14:05;29.60;;;17.40;;
69126;SDS011;56688;50.234;19.292;2022-12-24T01:16:32;26.00;;;15.70;;
69126;SDS011;56688;50.234;19.292;2022-12-24T01:18:58;29.40;;;16.90;;
69126;SDS011;56688;50.234;19.292;2022-12-24T01:21:25;26.00;;;15.80;;
69126;SDS011;56688;50.234;19.292;2022-12-24T01:23:52;33.00;;;18.00;;
69126;SDS011;56688;50.234;19.292;2022-12-24T01:26:19;32.60;;;18.60;;
69126;SDS011;56688;50.234;19.292;2022-12-24T01:28:46;34.50;;;20.30;;
69126;SDS011;56688;50.234;19.292;2022-12-24T01:31:13;34.60;;;19.80;;
69126;SDS011;56688;50.234;19.292;2022-12-24T01:33:42;36.60;;;20.20;;
69126;SDS011;56688;50.234;19.292;2022-12-24T01:36:10;33.80;;;19.20;;
69126;SDS011;56688;50.234;19.292;2022-12-24T01:38:38;28.20;;;17.70;;
69126;SDS011;56688;50.234;19.292;2022-12-24T01:41:05;27.40;;;16.20;;
69126;SDS011;56688;50.234;19.292;2022-12-24T01:43:47;32.90;;;18.20;;
69126;SDS011;56688;50.234;19.292;2022-12-24T01:48:58;23.60;;;15.00;;
69126;SDS011;56688;50.234;19.292;2022-12-24T01:54:04;23.40;;;13.90;;
69126;SDS011;56688;50.234;19.292;2022-12-24T01:56:39;24.00;;;13.70;;
69126;SDS011;56688;50.234;19.292;2022-12-24T01:59:13;19.50;;;12.70;;
69126;SDS011;56688;50.234;19.292;2022-12-24T02:01:42;19.40;;;11.90;;
69126;SDS011;56688;50.234;19.292;2022-12-24T02:04:11;16.40;;;10.80;;
69126;SDS011;56688;50.234;19.292;2022-12-24T02:06:43;15.10;;;10.10;;
69126;SDS011;56688;50.234;19.292;2022-12-24T02:09:10;18.00;;;10.20;;
69126;SDS011;56688;50.234;19.292;2022-12-24T02:11:37;19.10;;;12.20;;
69126;SDS011;56688;50.234;19.292;2022-12-24T02:14:06;17.50;;;10.90;;
69126;SDS011;56688;50.234;19.292;2022-12-24T02:29:55;12.50;;;8.70;;
69126;SDS011;56688;50.234;19.292;2022-12-24T02:35:05;11.80;;;8.80;;
69126;SDS011;56688;50.234;19.292;2022-12-24T02:37:46;12.60;;;8.20;;
69126;SDS011;56688;50.234;19.292;2022-12-24T02:40:27;11.70;;;8.20;;
69126;SDS011;56688;50.234;19.292;2022-12-24T02:42:59;13.80;;;8.50;;
69126;SDS011;56688;50.234;19.292;2022-12-24T02:45:31;10.80;;;7.50;;
69126;SDS011;56688;50.234;19.292;2022-12-24T02:47:59;11.10;;;7.50;;
69126;SDS011;56688;50.234;19.292;2022-12-24T02:50:26;11.70;;;6.90;;
69126;SDS011;56688;50.234;19.292;2022-12-24T02:52:54;8.90;;;6.10;;
69126;SDS011;56688;50.234;19.292;2022-12-24T02:55:22;7.90;;;5.50;;
69126;SDS011;56688;50.234;19.292;2022-12-24T03:00:31;7.40;;;4.60;;
69126;SDS011;56688;50.234;19.292;2022-12-24T03:05:57;7.20;;;5.20;;
69126;SDS011;56688;50.234;19.292;2022-12-24T03:11:03;10.20;;;6.00;;
69126;SDS011;56688;50.234;19.292;2022-12-24T03:13:35;7.50;;;5.20;;
69126;SDS011;56688;50.234;19.292;2022-12-24T03:16:03;9.10;;;5.20;;
69126;SDS011;56688;50.234;19.292;2022-12-24T03:18:35;12.50;;;7.30;;
69126;SDS011;56688;50.234;19.292;2022-12-24T03:21:09;9.00;;;6.20;;
69126;SDS011;56688;50.234;19.292;2022-12-24T03:23:41;7.30;;;5.20;;
69126;SDS011;56688;50.234;19.292;2022-12-24T03:26:09;7.40;;;5.20;;
69126;SDS011;56688;50.234;19.292;2022-12-24T03:28:38;7.40;;;4.90;;
69126;SDS011;56688;50.234;19.292;2022-12-24T03:31:07;8.70;;;5.40;;
69126;SDS011;56688;50.234;19.292;2022-12-24T03:33:35;9.30;;;5.50;;
69126;SDS011;56688;50.234;19.292;2022-12-24T03:36:03;8.40;;;6.20;;
69126;SDS011;56688;50.234;19.292;2022-12-24T03:38:31;10.50;;;6.50;;
69126;SDS011;56688;50.234;19.292;2022-12-24T03:40:58;9.70;;;6.90;;
69126;SDS011;56688;50.234;19.292;2022-12-24T03:43:25;13.60;;;8.80;;
69126;SDS011;56688;50.234;19.292;2022-12-24T03:45:52;15.10;;;9.50;;
69126;SDS011;56688;50.234;19.292;2022-12-24T03:48:19;17.90;;;10.60;;
69126;SDS011;56688;50.234;19.292;2022-12-24T03:50:45;15.20;;;10.20;;
69126;SDS011;56688;50.234;19.292;2022-12-24T03:53:12;14.20;;;9.80;;
69126;SDS011;56688;50.234;19.292;2022-12-24T03:55:39;17.10;;;12.40;;
69126;SDS011;56688;50.234;19.292;2022-12-24T03:58:06;9.20;;;5.80;;
69126;SDS011;56688;50.234;19.292;2022-12-24T04:00:32;17.50;;;10.50;;
69126;SDS011;56688;50.234;19.292;2022-12-24T04:02:59;16.10;;;10.70;;
69126;SDS011;56688;50.234;19.292;2022-12-24T04:05:26;20.10;;;12.30;;
69126;SDS011;56688;50.234;19.292;2022-12-24T04:07:53;19.40;;;12.50;;
69126;SDS011;56688;50.234;19.292;2022-12-24T04:10:20;17.10;;;10.60;;
69126;SDS011;56688;50.234;19.292;2022-12-24T04:12:47;17.50;;;11.10;;
69126;SDS011;56688;50.234;19.292;2022-12-24T04:15:13;20.20;;;13.40;;
69126;SDS011;56688;50.234;19.292;2022-12-24T04:17:40;17.10;;;10.70;;
69126;SDS011;56688;50.234;19.292;2022-12-24T04:20:07;16.80;;;9.90;;
69126;SDS011;56688;50.234;19.292;2022-12-24T04:22:35;20.90;;;12.30;;
69126;SDS011;56688;50.234;19.292;2022-12-24T04:25:02;15.90;;;11.40;;
69126;SDS011;56688;50.234;19.292;2022-12-24T04:27:28;20.10;;;13.10;;
69126;SDS011;56688;50.234;19.292;2022-12-24T04:29:56;21.50;;;14.20;;
69126;SDS011;56688;50.234;19.292;2022-12-24T04:32:24;17.40;;;11.30;;
69126;SDS011;56688;50.234;19.292;2022-12-24T04:34:52;14.60;;;10.20;;
69126;SDS011;56688;50.234;19.292;2022-12-24T04:37:19;14.40;;;8.10;;
69126;SDS011;56688;50.234;19.292;2022-12-24T04:39:46;11.60;;;7.80;;
69126;SDS011;56688;50.234;19.292;2022-12-24T04:42:13;10.80;;;8.70;;
69126;SDS011;56688;50.234;19.292;2022-12-24T04:44:40;12.50;;;7.80;;
69126;SDS011;56688;50.234;19.292;2022-12-24T04:47:07;15.70;;;11.00;;
69126;SDS011;56688;50.234;19.292;2022-12-24T04:49:33;12.30;;;8.70;;
69126;SDS011;56688;50.234;19.292;2022-12-24T04:52:00;13.50;;;9.90;;
69126;SDS011;56688;50.234;19.292;2022-12-24T04:54:27;12.80;;;9.30;;
69126;SDS011;56688;50.234;19.292;2022-12-24T04:56:54;12.80;;;9.20;;
69126;SDS011;56688;50.234;19.292;2022-12-24T04:59:21;11.20;;;8.30;;
69126;SDS011;56688;50.234;19.292;2022-12-24T05:01:47;15.50;;;10.00;;
69126;SDS011;56688;50.234;19.292;2022-12-24T05:04:14;14.00;;;9.70;;
69126;SDS011;56688;50.234;19.292;2022-12-24T05:06:41;10.00;;;8.60;;
69126;SDS011;56688;50.234;19.292;2022-12-24T05:09:08;13.00;;;8.30;;
69126;SDS011;56688;50.234;19.292;2022-12-24T05:11:34;10.90;;;7.80;;
69126;SDS011;56688;50.234;19.292;2022-12-24T05:14:01;11.00;;;8.00;;
69126;SDS011;56688;50.234;19.292;2022-12-24T05:16:28;8.70;;;7.00;;
69126;SDS011;56688;50.234;19.292;2022-12-24T05:18:55;12.30;;;8.90;;
69126;SDS011;56688;50.234;19.292;2022-12-24T05:21:23;9.40;;;7.30;;
69126;SDS011;56688;50.234;19.292;2022-12-24T05:23:50;12.30;;;8.40;;
69126;SDS011;56688;50.234;19.292;2022-12-24T05:29:03;10.40;;;8.10;;
69126;SDS011;56688;50.234;19.292;2022-12-24T05:31:31;13.40;;;9.90;;
69126;SDS011;56688;50.234;19.292;2022-12-24T05:33:59;14.40;;;9.50;;
69126;SDS011;56688;50.234;19.292;2022-12-24T05:36:26;14.90;;;11.60;;
69126;SDS011;56688;50.234;19.292;2022-12-24T05:38:53;13.40;;;10.70;;
69126;SDS011;56688;50.234;19.292;2022-12-24T05:41:20;12.00;;;9.40;;
69126;SDS011;56688;50.234;19.292;2022-12-24T05:43:47;13.70;;;9.60;;
69126;SDS011;56688;50.234;19.292;2022-12-24T05:46:15;12.20;;;9.00;;
69126;SDS011;56688;50.234;19.292;2022-12-24T05:48:45;9.30;;;7.40;;
69126;SDS011;56688;50.234;19.292;2022-12-24T05:51:13;12.60;;;9.90;;
69126;SDS011;56688;50.234;19.292;2022-12-24T05:53:44;13.30;;;9.60;;
69126;SDS011;56688;50.234;19.292;2022-12-24T05:56:13;15.30;;;10.90;;
69126;SDS011;56688;50.234;19.292;2022-12-24T05:58:42;13.30;;;10.00;;
69126;SDS011;56688;50.234;19.292;2022-12-24T06:01:10;11.90;;;9.40;;
69126;SDS011;56688;50.234;19.292;2022-12-24T06:03:38;13.60;;;10.00;;
69126;SDS011;56688;50.234;19.292;2022-12-24T06:06:06;11.40;;;7.90;;
69126;SDS011;56688;50.234;19.292;2022-12-24T06:08:35;12.00;;;8.30;;
69126;SDS011;56688;50.234;19.292;2022-12-24T06:11:05;11.80;;;9.50;;
69126;SDS011;56688;50.234;19.292;2022-12-24T06:13:35;12.00;;;9.20;;
69126;SDS011;56688;50.234;19.292;2022-12-24T06:16:03;14.10;;;10.00;;
69126;SDS011;56688;50.234;19.292;2022-12-24T06:18:32;14.30;;;10.50;;
69126;SDS011;56688;50.234;19.292;2022-12-24T06:21:00;16.60;;;12.20;;
69126;SDS011;56688;50.234;19.292;2022-12-24T06:23:28;15.70;;;12.10;;
69126;SDS011;56688;50.234;19.292;2022-12-24T06:25:57;18.50;;;12.70;;
69126;SDS011;56688;50.234;19.292;2022-12-24T06:28:26;17.30;;;12.40;;
69126;SDS011;56688;50.234;19.292;2022-12-24T06:30:54;17.90;;;13.20;;
69126;SDS011;56688;50.234;19.292;2022-12-24T06:35:55;19.20;;;13.40;;
69126;SDS011;56688;50.234;19.292;2022-12-24T06:38:23;24.00;;;14.50;;
69126;SDS011;56688;50.234;19.292;2022-12-24T06:40:50;24.10;;;15.50;;
69126;SDS011;56688;50.234;19.292;2022-12-24T06:43:17;16.70;;;10.40;;
69126;SDS011;56688;50.234;19.292;2022-12-24T06:45:44;15.60;;;10.70;;
69126;SDS011;56688;50.234;19.292;2022-12-24T06:48:12;15.80;;;9.00;;
69126;SDS011;56688;50.234;19.292;2022-12-24T06:50:40;14.60;;;9.40;;
69126;SDS011;56688;50.234;19.292;2022-12-24T06:53:08;14.00;;;10.80;;
69126;SDS011;56688;50.234;19.292;2022-12-24T06:55:35;11.80;;;8.40;;
69126;SDS011;56688;50.234;19.292;2022-12-24T06:58:03;14.20;;;9.50;;
69126;SDS011;56688;50.234;19.292;2022-12-24T07:00:30;11.40;;;8.20;;
69126;SDS011;56688;50.234;19.292;2022-12-24T07:02:57;12.30;;;9.40;;
69126;SDS011;56688;50.234;19.292;2022-12-24T07:05:24;10.40;;;7.00;;
69126;SDS011;56688;50.234;19.292;2022-12-24T07:07:51;13.30;;;8.60;;
69126;SDS011;56688;50.234;19.292;2022-12-24T07:10:18;13.40;;;9.50;;
69126;SDS011;56688;50.234;19.292;2022-12-24T07:12:47;12.10;;;8.20;;
69126;SDS011;56688;50.234;19.292;2022-12-24T07:15:15;12.40;;;8.40;;
69126;SDS011;56688;50.234;19.292;2022-12-24T07:17:42;15.20;;;10.20;;
69126;SDS011;56688;50.234;19.292;2022-12-24T07:20:11;15.90;;;11.10;;
69126;SDS011;56688;50.234;19.292;2022-12-24T07:22:41;20.50;;;12.80;;
69126;SDS011;56688;50.234;19.292;2022-12-24T07:25:08;13.20;;;9.20;;
69126;SDS011;56688;50.234;19.292;2022-12-24T07:27:35;13.60;;;9.90;;
69126;SDS011;56688;50.234;19.292;2022-12-24T07:30:03;17.70;;;12.00;;
69126;SDS011;56688;50.234;19.292;2022-12-24T07:32:30;13.10;;;9.10;;
69126;SDS011;56688;50.234;19.292;2022-12-24T07:34:57;17.90;;;10.80;;
69126;SDS011;56688;50.234;19.292;2022-12-24T07:37:24;20.50;;;11.90;;
69126;SDS011;56688;50.234;19.292;2022-12-24T07:39:50;16.30;;;10.80;;
69126;SDS011;56688;50.234;19.292;2022-12-24T07:42:17;19.00;;;12.10;;
69126;SDS011;56688;50.234;19.292;2022-12-24T07:44:44;14.40;;;9.80;;
69126;SDS011;56688;50.234;19.292;2022-12-24T07:47:11;18.30;;;11.60;;
69126;SDS011;56688;50.234;19.292;2022-12-24T07:49:38;17.40;;;11.50;;
69126;SDS011;56688;50.234;19.292;2022-12-24T07:52:05;20.50;;;12.80;;
69126;SDS011;56688;50.234;19.292;2022-12-24T07:54:32;17.00;;;10.90;;
69126;SDS011;56688;50.234;19.292;2022-12-24T07:57:00;19.90;;;12.20;;
69126;SDS011;56688;50.234;19.292;2022-12-24T07:59:26;21.00;;;12.50;;
69126;SDS011;56688;50.234;19.292;2022-12-24T08:01:53;22.70;;;13.10;;
69126;SDS011;56688;50.234;19.292;2022-12-24T08:04:20;19.90;;;12.70;;
69126;SDS011;56688;50.234;19.292;2022-12-24T08:06:47;22.80;;;12.60;;
69126;SDS011;56688;50.234;19.292;2022-12-24T08:09:14;18.30;;;11.70;;
69126;SDS011;56688;50.234;19.292;2022-12-24T08:11:41;22.00;;;12.10;;
69126;SDS011;56688;50.234;19.292;2022-12-24T08:14:17;16.80;;;10.20;;
69126;SDS011;56688;50.234;19.292;2022-12-24T08:16:44;13.40;;;9.00;;
69126;SDS011;56688;50.234;19.292;2022-12-24T08:19:11;17.90;;;10.90;;
69126;SDS011;56688;50.234;19.292;2022-12-24T08:21:37;20.00;;;9.80;;
69126;SDS011;56688;50.234;19.292;2022-12-24T08:24:04;19.40;;;11.60;;
69126;SDS011;56688;50.234;19.292;2022-12-24T08:26:31;19.20;;;10.70;;
69126;SDS011;56688;50.234;19.292;2022-12-24T08:28:58;13.90;;;9.00;;
69126;SDS011;56688;50.234;19.292;2022-12-24T08:31:25;20.00;;;11.80;;
69126;SDS011;56688;50.234;19.292;2022-12-24T08:33:52;21.20;;;12.20;;
69126;SDS011;56688;50.234;19.292;2022-12-24T08:36:19;19.70;;;11.50;;
69126;SDS011;56688;50.234;19.292;2022-12-24T08:38:45;18.60;;;10.60;;
69126;SDS011;56688;50.234;19.292;2022-12-24T08:41:12;16.60;;;10.70;;
69126;SDS011;56688;50.234;19.292;2022-12-24T08:43:39;21.20;;;12.30;;
69126;SDS011;56688;50.234;19.292;2022-12-24T08:46:06;16.50;;;10.80;;
69126;SDS011;56688;50.234;19.292;2022-12-24T08:48:33;19.20;;;10.80;;
69126;SDS011;56688;50.234;19.292;2022-12-24T08:51:04;15.30;;;10.10;;
69126;SDS011;56688;50.234;19.292;2022-12-24T08:56:02;15.70;;;9.30;;
69126;SDS011;56688;50.234;19.292;2022-12-24T08:58:30;16.50;;;10.50;;
69126;SDS011;56688;50.234;19.292;2022-12-24T09:00:58;16.60;;;10.10;;
69126;SDS011;56688;50.234;19.292;2022-12-24T09:03:25;13.10;;;8.20;;
69126;SDS011;56688;50.234;19.292;2022-12-24T09:05:53;17.10;;;10.00;;
69126;SDS011;56688;50.234;19.292;2022-12-24T09:08:20;16.00;;;8.90;;
69126;SDS011;56688;50.234;19.292;2022-12-24T09:10:47;16.90;;;9.40;;
69126;SDS011;56688;50.234;19.292;2022-12-24T09:13:14;14.10;;;8.60;;
69126;SDS011;56688;50.234;19.292;2022-12-24T09:15:41;15.30;;;8.20;;
69126;SDS011;56688;50.234;19.292;2022-12-24T09:18:07;13.20;;;7.70;;
69126;SDS011;56688;50.234;19.292;2022-12-24T09:20:34;11.90;;;7.90;;
69126;SDS011;56688;50.234;19.292;2022-12-24T09:23:01;12.60;;;6.80;;
69126;SDS011;56688;50.234;19.292;2022-12-24T09:25:28;12.40;;;8.10;;
69126;SDS011;56688;50.234;19.292;2022-12-24T09:27:55;16.00;;;9.10;;
69126;SDS011;56688;50.234;19.292;2022-12-24T09:30:21;13.80;;;8.00;;
69126;SDS011;56688;50.234;19.292;2022-12-24T09:32:49;9.50;;;6.10;;
69126;SDS011;56688;50.234;19.292;2022-12-24T09:35:17;11.70;;;7.30;;
69126;SDS011;56688;50.234;19.292;2022-12-24T09:37:43;14.40;;;7.90;;
69126;SDS011;56688;50.234;19.292;2022-12-24T09:40:17;13.40;;;8.10;;
69126;SDS011;56688;50.234;19.292;2022-12-24T09:42:51;12.90;;;7.70;;
69126;SDS011;56688;50.234;19.292;2022-12-24T09:48:08;11.90;;;7.00;;
69126;SDS011;56688;50.234;19.292;2022-12-24T09:50:47;12.60;;;8.90;;
69126;SDS011;56688;50.234;19.292;2022-12-24T09:53:22;16.10;;;8.10;;
69126;SDS011;56688;50.234;19.292;2022-12-24T09:56:01;11.30;;;5.90;;
69126;SDS011;56688;50.234;19.292;2022-12-24T09:58:34;10.30;;;6.10;;
69126;SDS011;56688;50.234;19.292;2022-12-24T10:01:05;20.80;;;10.30;;
69126;SDS011;56688;50.234;19.292;2022-12-24T10:03:33;18.70;;;12.80;;
69126;SDS011;56688;50.234;19.292;2022-12-24T10:08:42;15.00;;;7.20;;
69126;SDS011;56688;50.234;19.292;2022-12-24T10:14:05;18.70;;;7.90;;
69126;SDS011;56688;50.234;19.292;2022-12-24T10:16:45;13.60;;;7.80;;
69126;SDS011;56688;50.234;19.292;2022-12-24T10:25:13;16.10;;;8.70;;
69126;SDS011;56688;50.234;19.292;2022-12-24T10:27:47;15.00;;;8.40;;
69126;SDS011;56688;50.234;19.292;2022-12-24T10:30:15;15.20;;;8.70;;
69126;SDS011;56688;50.234;19.292;2022-12-24T10:32:46;13.00;;;7.00;;
69126;SDS011;56688;50.234;19.292;2022-12-24T10:37:42;15.30;;;8.40;;
69126;SDS011;56688;50.234;19.292;2022-12-24T10:40:21;18.40;;;8.80;;
69126;SDS011;56688;50.234;19.292;2022-12-24T10:42:52;12.50;;;7.20;;
69126;SDS011;56688;50.234;19.292;2022-12-24T10:45:20;14.80;;;7.80;;
69126;SDS011;56688;50.234;19.292;2022-12-24T10:47:48;16.00;;;7.70;;
69126;SDS011;56688;50.234;19.292;2022-12-24T10:53:16;20.40;;;9.40;;
69126;SDS011;56688;50.234;19.292;2022-12-24T10:55:49;17.60;;;8.30;;
69126;SDS011;56688;50.234;19.292;2022-12-24T10:58:26;16.50;;;8.10;;
69126;SDS011;56688;50.234;19.292;2022-12-24T11:00:53;13.40;;;7.10;;
69126;SDS011;56688;50.234;19.292;2022-12-24T11:03:21;14.10;;;6.80;;
69126;SDS011;56688;50.234;19.292;2022-12-24T11:08:32;16.20;;;8.50;;
69126;SDS011;56688;50.234;19.292;2022-12-24T11:11:03;20.20;;;9.40;;
69126;SDS011;56688;50.234;19.292;2022-12-24T11:13:33;20.00;;;11.30;;
69126;SDS011;56688;50.234;19.292;2022-12-24T11:16:07;22.90;;;11.00;;
69126;SDS011;56688;50.234;19.292;2022-12-24T11:18:44;18.60;;;9.90;;
69126;SDS011;56688;50.234;19.292;2022-12-24T11:21:18;20.00;;;10.30;;
69126;SDS011;56688;50.234;19.292;2022-12-24T11:23:50;21.50;;;13.50;;
69126;SDS011;56688;50.234;19.292;2022-12-24T11:26:22;21.30;;;10.80;;
69126;SDS011;56688;50.234;19.292;2022-12-24T11:29:02;16.00;;;8.60;;
69126;SDS011;56688;50.234;19.292;2022-12-24T11:31:29;16.40;;;9.30;;
69126;SDS011;56688;50.234;19.292;2022-12-24T11:33:58;19.30;;;9.50;;
69126;SDS011;56688;50.234;19.292;2022-12-24T11:36:25;14.50;;;7.90;;
69126;SDS011;56688;50.234;19.292;2022-12-24T11:38:54;15.90;;;7.10;;
69126;SDS011;56688;50.234;19.292;2022-12-24T11:41:23;14.50;;;7.40;;
69126;SDS011;56688;50.234;19.292;2022-12-24T11:44:00;13.60;;;7.30;;
69126;SDS011;56688;50.234;19.292;2022-12-24T11:46:35;14.10;;;7.80;;
69126;SDS011;56688;50.234;19.292;2022-12-24T11:54:32;16.30;;;8.40;;
69126;SDS011;56688;50.234;19.292;2022-12-24T11:57:08;13.50;;;8.30;;
69126;SDS011;56688;50.234;19.292;2022-12-24T11:59:41;19.10;;;9.60;;
69126;SDS011;56688;50.234;19.292;2022-12-24T12:04:39;14.20;;;7.30;;
69126;SDS011;56688;50.234;19.292;2022-12-24T12:07:10;14.40;;;7.30;;
69126;SDS011;56688;50.234;19.292;2022-12-24T12:09:43;15.10;;;7.10;;
69126;SDS011;56688;50.234;19.292;2022-12-24T12:12:16;17.90;;;10.00;;
69126;SDS011;56688;50.234;19.292;2022-12-24T12:14:48;13.00;;;7.40;;
69126;SDS011;56688;50.234;19.292;2022-12-24T12:19:54;16.10;;;8.90;;
69126;SDS011;56688;50.234;19.292;2022-12-24T12:24:54;15.10;;;8.40;;
69126;SDS011;56688;50.234;19.292;2022-12-24T12:30:13;16.90;;;9.80;;
69126;SDS011;56688;50.234;19.292;2022-12-24T12:35:44;20.20;;;9.70;;
69126;SDS011;56688;50.234;19.292;2022-12-24T12:38:28;19.20;;;9.90;;
69126;SDS011;56688;50.234;19.292;2022-12-24T12:46:32;17.50;;;10.60;;
69126;SDS011;56688;50.234;19.292;2022-12-24T12:49:22;17.50;;;10.80;;
69126;SDS011;56688;50.234;19.292;2022-12-24T12:52:01;20.30;;;10.90;;
69126;SDS011;56688;50.234;19.292;2022-12-24T12:54:48;22.20;;;12.50;;
69126;SDS011;56688;50.234;19.292;2022-12-24T12:57:18;53.40;;;27.80;;
69126;SDS011;56688;50.234;19.292;2022-12-24T12:59:51;63.80;;;39.40;;
69126;SDS011;56688;50.234;19.292;2022-12-24T13:05:17;59.50;;;33.90;;
69126;SDS011;56688;50.234;19.292;2022-12-24T13:21:27;21.00;;;11.90;;
69126;SDS011;56688;50.234;19.292;2022-12-24T13:24:04;21.30;;;15.30;;
69126;SDS011;56688;50.234;19.292;2022-12-24T13:29:28;20.20;;;11.50;;
69126;SDS011;56688;50.234;19.292;2022-12-24T13:34:50;49.80;;;33.90;;
69126;SDS011;56688;50.234;19.292;2022-12-24T13:37:31;16.70;;;9.90;;
69126;SDS011;56688;50.234;19.292;2022-12-24T13:40:02;34.80;;;22.90;;
69126;SDS011;56688;50.234;19.292;2022-12-24T13:50:29;37.70;;;26.50;;
69126;SDS011;56688;50.234;19.292;2022-12-24T13:53:04;20.80;;;13.10;;
69126;SDS011;56688;50.234;19.292;2022-12-24T13:58:31;17.60;;;10.20;;
69126;SDS011;56688;50.234;19.292;2022-12-24T14:01:00;25.60;;;12.70;;
69126;SDS011;56688;50.234;19.292;2022-12-24T14:03:32;16.60;;;10.10;;
69126;SDS011;56688;50.234;19.292;2022-12-24T14:06:08;17.30;;;10.50;;
69126;SDS011;56688;50.234;19.292;2022-12-24T14:08:40;19.60;;;11.50;;
69126;SDS011;56688;50.234;19.292;2022-12-24T14:11:16;22.30;;;13.40;;
69126;SDS011;56688;50.234;19.292;2022-12-24T14:16:18;22.70;;;13.20;;
69126;SDS011;56688;50.234;19.292;2022-12-24T14:19:02;25.70;;;16.50;;
69126;SDS011;56688;50.234;19.292;2022-12-24T14:24:33;21.30;;;12.40;;
69126;SDS011;56688;50.234;19.292;2022-12-24T14:27:06;24.10;;;13.80;;
69126;SDS011;56688;50.234;19.292;2022-12-24T14:30:03;26.90;;;16.60;;
69126;SDS011;56688;50.234;19.292;2022-12-24T14:32:35;28.10;;;18.10;;
69126;SDS011;56688;50.234;19.292;2022-12-24T14:40:33;28.40;;;16.20;;
69126;SDS011;56688;50.234;19.292;2022-12-24T14:43:13;19.70;;;11.60;;
69126;SDS011;56688;50.234;19.292;2022-12-24T14:45:50;20.80;;;12.70;;
69126;SDS011;56688;50.234;19.292;2022-12-24T14:48:27;23.30;;;13.00;;
69126;SDS011;56688;50.234;19.292;2022-12-24T14:56:34;21.30;;;12.50;;
69126;SDS011;56688;50.234;19.292;2022-12-24T14:59:13;23.60;;;13.60;;
69126;SDS011;56688;50.234;19.292;2022-12-24T15:01:57;29.30;;;15.90;;
69126;SDS011;56688;50.234;19.292;2022-12-24T15:07:43;26.10;;;15.10;;
69126;SDS011;56688;50.234;19.292;2022-12-24T15:10:19;30.40;;;15.10;;
69126;SDS011;56688;50.234;19.292;2022-12-24T15:12:52;26.50;;;14.20;;
69126;SDS011;56688;50.234;19.292;2022-12-24T15:15:21;25.00;;;13.40;;
69126;SDS011;56688;50.234;19.292;2022-12-24T15:17:48;23.70;;;11.90;;
69126;SDS011;56688;50.234;19.292;2022-12-24T15:20:17;23.50;;;12.20;;
69126;SDS011;56688;50.234;19.292;2022-12-24T15:22:48;22.90;;;13.00;;
69126;SDS011;56688;50.234;19.292;2022-12-24T15:27:51;30.50;;;14.70;;
69126;SDS011;56688;50.234;19.292;2022-12-24T15:30:19;26.60;;;13.70;;
69126;SDS011;56688;50.234;19.292;2022-12-24T15:32:49;22.60;;;11.60;;
69126;SDS011;56688;50.234;19.292;2022-12-24T15:35:29;24.70;;;12.80;;
69126;SDS011;56688;50.234;19.292;2022-12-24T15:37:57;25.70;;;14.10;;
69126;SDS011;56688;50.234;19.292;2022-12-24T15:40:24;27.80;;;15.70;;
69126;SDS011;56688;50.234;19.292;2022-12-24T15:42:51;31.60;;;14.60;;
69126;SDS011;56688;50.234;19.292;2022-12-24T15:45:20;53.00;;;33.40;;
69126;SDS011;56688;50.234;19.292;2022-12-24T15:47:55;70.20;;;38.80;;
69126;SDS011;56688;50.234;19.292;2022-12-24T15:53:12;246.00;;;127.10;;
69126;SDS011;56688;50.234;19.292;2022-12-24T15:56:00;374.80;;;154.30;;
69126;SDS011;56688;50.234;19.292;2022-12-24T15:58:30;623.60;;;315.40;;
69126;SDS011;56688;50.234;19.292;2022-12-24T16:01:04;521.90;;;309.40;;
69126;SDS011;56688;50.234;19.292;2022-12-24T16:03:32;79.50;;;38.10;;
69126;SDS011;56688;50.234;19.292;2022-12-24T16:08:28;181.20;;;97.30;;
69126;SDS011;56688;50.234;19.292;2022-12-24T16:16:04;69.90;;;33.80;;
69126;SDS011;56688;50.234;19.292;2022-12-24T16:18:41;75.80;;;40.30;;
69126;SDS011;56688;50.234;19.292;2022-12-24T16:21:18;39.10;;;20.50;;
69126;SDS011;56688;50.234;19.292;2022-12-24T16:23:49;35.50;;;17.80;;
69126;SDS011;56688;50.234;19.292;2022-12-24T16:26:19;44.50;;;25.10;;
69126;SDS011;56688;50.234;19.292;2022-12-24T16:28:47;31.70;;;16.40;;
69126;SDS011;56688;50.234;19.292;2022-12-24T16:31:16;32.90;;;16.90;;
69126;SDS011;56688;50.234;19.292;2022-12-24T16:33:45;33.90;;;18.60;;
69126;SDS011;56688;50.234;19.292;2022-12-24T16:36:12;52.70;;;34.80;;
69126;SDS011;56688;50.234;19.292;2022-12-24T16:38:40;29.90;;;17.60;;
69126;SDS011;56688;50.234;19.292;2022-12-24T16:41:22;31.70;;;17.70;;
69126;SDS011;56688;50.234;19.292;2022-12-24T16:43:48;32.50;;;14.10;;
69126;SDS011;56688;50.234;19.292;2022-12-24T16:46:15;29.80;;;12.50;;
69126;SDS011;56688;50.234;19.292;2022-12-24T16:48:44;27.20;;;14.10;;
69126;SDS011;56688;50.234;19.292;2022-12-24T16:51:12;26.20;;;11.00;;
69126;SDS011;56688;50.234;19.292;2022-12-24T16:53:39;29.00;;;11.70;;
69126;SDS011;56688;50.234;19.292;2022-12-24T16:56:06;25.80;;;11.60;;